sensor_id;sensor_type;location;lat;lon;timestamp;P1;durP1;ratioP1;P2;durP2;ratioP2
10977;SDS011;5542;48.272;10.794;2022-10-13T00:01:40;7.35;;;6.65;;
10977;SDS011;5542;48.272;10.794;2022-10-13T00:04:08;5.10;;;4.70;;
10977;SDS011;5542;48.272;10.794;2022-10-13T00:06:34;5.75;;;5.25;;
10977;SDS011;5542;48.272;10.794;2022-10-13T00:09:01;5.22;;;4.82;;
10977;SDS011;5542;48.272;10.794;2022-10-13T00:11:28;6.35;;;5.80;;
10977;SDS011;5542;48.272;10.794;2022-10-13T00:13:56;5.32;;;4.90;;
10977;SDS011;5542;48.272;10.794;2022-10-13T00:16:24;4.60;;;4.22;;
10977;SDS011;5542;48.272;10.794;2022-10-13T00:18:52;6.57;;;5.97;;
10977;SDS011;5542;48.272;10.794;2022-10-13T00:21:22;5.57;;;5.07;;
10977;SDS011;5542;48.272;10.794;2022-10-13T00:23:50;5.72;;;5.22;;
10977;SDS011;5542;48.272;10.794;2022-10-13T00:26:17;4.80;;;4.40;;
10977;SDS011;5542;48.272;10.794;2022-10-13T00:28:46;5.65;;;5.20;;
10977;SDS011;5542;48.272;10.794;2022-10-13T00:31:13;5.80;;;5.30;;
10977;SDS011;5542;48.272;10.794;2022-10-13T00:33:41;5.32;;;4.90;;
10977;SDS011;5542;48.272;10.794;2022-10-13T00:36:08;5.32;;;4.93;;
10977;SDS011;5542;48.272;10.794;2022-10-13T00:38:36;5.57;;;5.07;;
10977;SDS011;5542;48.272;10.794;2022-10-13T00:41:03;5.28;;;4.80;;
10977;SDS011;5542;48.272;10.794;2022-10-13T00:46:16;5.70;;;5.30;;
10977;SDS011;5542;48.272;10.794;2022-10-13T00:48:43;5.60;;;5.13;;
10977;SDS011;5542;48.272;10.794;2022-10-13T00:51:11;3.90;;;3.60;;
10977;SDS011;5542;48.272;10.794;2022-10-13T00:53:41;5.20;;;4.80;;
10977;SDS011;5542;48.272;10.794;2022-10-13T00:56:10;4.50;;;4.18;;
10977;SDS011;5542;48.272;10.794;2022-10-13T00:58:38;4.50;;;4.13;;
10977;SDS011;5542;48.272;10.794;2022-10-13T01:01:05;4.13;;;3.83;;
10977;SDS011;5542;48.272;10.794;2022-10-13T01:03:32;3.80;;;3.50;;
10977;SDS011;5542;48.272;10.794;2022-10-13T01:06:00;3.22;;;3.03;;
10977;SDS011;5542;48.272;10.794;2022-10-13T01:08:29;4.32;;;4.03;;
10977;SDS011;5542;48.272;10.794;2022-10-13T01:11:00;4.50;;;4.20;;
10977;SDS011;5542;48.272;10.794;2022-10-13T01:13:41;4.07;;;3.78;;
10977;SDS011;5542;48.272;10.794;2022-10-13T01:16:17;3.80;;;3.50;;
10977;SDS011;5542;48.272;10.794;2022-10-13T01:18:50;3.83;;;3.53;;
10977;SDS011;5542;48.272;10.794;2022-10-13T01:21:27;4.90;;;4.50;;
10977;SDS011;5542;48.272;10.794;2022-10-13T01:27:04;3.60;;;3.30;;
10977;SDS011;5542;48.272;10.794;2022-10-13T01:33:05;4.00;;;3.70;;
10977;SDS011;5542;48.272;10.794;2022-10-13T01:35:44;3.17;;;2.97;;
10977;SDS011;5542;48.272;10.794;2022-10-13T01:38:23;2.97;;;2.78;;
10977;SDS011;5542;48.272;10.794;2022-10-13T01:40:58;4.10;;;3.80;;
10977;SDS011;5542;48.272;10.794;2022-10-13T01:43:31;4.47;;;4.18;;
10977;SDS011;5542;48.272;10.794;2022-10-13T01:46:03;4.10;;;3.80;;
10977;SDS011;5542;48.272;10.794;2022-10-13T01:48:35;3.20;;;3.00;;
10977;SDS011;5542;48.272;10.794;2022-10-13T01:51:04;3.53;;;3.23;;
10977;SDS011;5542;48.272;10.794;2022-10-13T01:53:33;4.00;;;3.70;;
10977;SDS011;5542;48.272;10.794;2022-10-13T01:56:00;3.40;;;3.20;;
10977;SDS011;5542;48.272;10.794;2022-10-13T01:58:28;3.83;;;3.53;;
10977;SDS011;5542;48.272;10.794;2022-10-13T02:01:02;3.53;;;3.22;;
10977;SDS011;5542;48.272;10.794;2022-10-13T02:03:38;4.23;;;3.93;;
10977;SDS011;5542;48.272;10.794;2022-10-13T02:06:15;4.30;;;4.00;;
10977;SDS011;5542;48.272;10.794;2022-10-13T02:08:50;3.95;;;3.65;;
10977;SDS011;5542;48.272;10.794;2022-10-13T02:11:21;3.92;;;3.63;;
10977;SDS011;5542;48.272;10.794;2022-10-13T02:13:51;4.60;;;4.20;;
10977;SDS011;5542;48.272;10.794;2022-10-13T02:16:25;4.25;;;3.85;;
10977;SDS011;5542;48.272;10.794;2022-10-13T02:18:55;4.03;;;3.72;;
10977;SDS011;5542;48.272;10.794;2022-10-13T02:21:22;3.35;;;3.05;;
10977;SDS011;5542;48.272;10.794;2022-10-13T02:23:50;5.25;;;4.75;;
10977;SDS011;5542;48.272;10.794;2022-10-13T02:26:16;4.20;;;3.90;;
10977;SDS011;5542;48.272;10.794;2022-10-13T02:28:43;4.32;;;3.92;;
10977;SDS011;5542;48.272;10.794;2022-10-13T02:31:10;4.20;;;3.90;;
10977;SDS011;5542;48.272;10.794;2022-10-13T02:33:38;4.33;;;4.00;;
10977;SDS011;5542;48.272;10.794;2022-10-13T02:36:04;4.82;;;4.32;;
10977;SDS011;5542;48.272;10.794;2022-10-13T02:38:31;5.55;;;5.07;;
10977;SDS011;5542;48.272;10.794;2022-10-13T02:40:59;4.50;;;4.10;;
10977;SDS011;5542;48.272;10.794;2022-10-13T02:43:26;4.78;;;4.38;;
10977;SDS011;5542;48.272;10.794;2022-10-13T02:45:52;4.28;;;3.97;;
10977;SDS011;5542;48.272;10.794;2022-10-13T02:48:19;4.80;;;4.40;;
10977;SDS011;5542;48.272;10.794;2022-10-13T02:50:47;4.60;;;4.20;;
10977;SDS011;5542;48.272;10.794;2022-10-13T02:53:13;4.20;;;3.90;;
10977;SDS011;5542;48.272;10.794;2022-10-13T02:55:40;3.70;;;3.40;;
10977;SDS011;5542;48.272;10.794;2022-10-13T02:58:07;3.60;;;3.30;;
10977;SDS011;5542;48.272;10.794;2022-10-13T03:00:33;3.80;;;3.50;;
10977;SDS011;5542;48.272;10.794;2022-10-13T03:03:00;4.25;;;3.95;;
10977;SDS011;5542;48.272;10.794;2022-10-13T03:05:27;3.70;;;3.40;;
10977;SDS011;5542;48.272;10.794;2022-10-13T03:07:54;3.50;;;3.20;;
10977;SDS011;5542;48.272;10.794;2022-10-13T03:10:21;3.30;;;3.10;;
10977;SDS011;5542;48.272;10.794;2022-10-13T03:12:48;3.35;;;3.05;;
10977;SDS011;5542;48.272;10.794;2022-10-13T03:15:14;3.47;;;3.17;;
10977;SDS011;5542;48.272;10.794;2022-10-13T03:17:41;4.30;;;4.00;;
10977;SDS011;5542;48.272;10.794;2022-10-13T03:20:08;4.18;;;3.88;;
10977;SDS011;5542;48.272;10.794;2022-10-13T03:22:35;4.20;;;3.90;;
10977;SDS011;5542;48.272;10.794;2022-10-13T03:25:03;3.83;;;3.53;;
10977;SDS011;5542;48.272;10.794;2022-10-13T03:27:31;3.33;;;3.08;;
10977;SDS011;5542;48.272;10.794;2022-10-13T03:29:57;3.67;;;3.37;;
10977;SDS011;5542;48.272;10.794;2022-10-13T03:32:24;4.07;;;3.78;;
10977;SDS011;5542;48.272;10.794;2022-10-13T03:34:50;4.30;;;4.00;;
10977;SDS011;5542;48.272;10.794;2022-10-13T03:37:17;4.10;;;3.80;;
10977;SDS011;5542;48.272;10.794;2022-10-13T03:39:44;3.65;;;3.42;;
10977;SDS011;5542;48.272;10.794;2022-10-13T03:42:11;3.40;;;3.20;;
10977;SDS011;5542;48.272;10.794;2022-10-13T03:44:38;4.82;;;4.43;;
10977;SDS011;5542;48.272;10.794;2022-10-13T03:47:05;4.67;;;4.27;;
10977;SDS011;5542;48.272;10.794;2022-10-13T03:49:31;4.20;;;3.80;;
10977;SDS011;5542;48.272;10.794;2022-10-13T03:51:58;4.60;;;4.20;;
10977;SDS011;5542;48.272;10.794;2022-10-13T03:54:24;4.20;;;3.80;;
10977;SDS011;5542;48.272;10.794;2022-10-13T03:56:51;5.03;;;4.63;;
10977;SDS011;5542;48.272;10.794;2022-10-13T03:59:19;4.97;;;4.57;;
10977;SDS011;5542;48.272;10.794;2022-10-13T04:01:46;4.28;;;3.97;;
10977;SDS011;5542;48.272;10.794;2022-10-13T04:04:12;4.80;;;4.40;;
10977;SDS011;5542;48.272;10.794;2022-10-13T04:06:39;4.50;;;4.10;;
10977;SDS011;5542;48.272;10.794;2022-10-13T04:09:05;4.13;;;3.83;;
10977;SDS011;5542;48.272;10.794;2022-10-13T04:11:32;4.60;;;4.20;;
10977;SDS011;5542;48.272;10.794;2022-10-13T04:13:59;4.10;;;3.70;;
10977;SDS011;5542;48.272;10.794;2022-10-13T04:16:28;4.95;;;4.50;;
10977;SDS011;5542;48.272;10.794;2022-10-13T04:18:56;4.55;;;4.15;;
10977;SDS011;5542;48.272;10.794;2022-10-13T04:21:25;3.67;;;3.38;;
10977;SDS011;5542;48.272;10.794;2022-10-13T04:23:53;4.78;;;4.38;;
10977;SDS011;5542;48.272;10.794;2022-10-13T04:26:21;4.63;;;4.22;;
10977;SDS011;5542;48.272;10.794;2022-10-13T04:28:52;4.85;;;4.45;;
10977;SDS011;5542;48.272;10.794;2022-10-13T04:31:20;4.05;;;3.72;;
10977;SDS011;5542;48.272;10.794;2022-10-13T04:33:49;3.70;;;3.40;;
10977;SDS011;5542;48.272;10.794;2022-10-13T04:36:16;5.93;;;4.97;;
10977;SDS011;5542;48.272;10.794;2022-10-13T04:38:44;4.47;;;4.07;;
10977;SDS011;5542;48.272;10.794;2022-10-13T04:41:11;3.95;;;3.65;;
10977;SDS011;5542;48.272;10.794;2022-10-13T04:43:38;4.53;;;4.10;;
10977;SDS011;5542;48.272;10.794;2022-10-13T04:46:05;4.30;;;3.90;;
10977;SDS011;5542;48.272;10.794;2022-10-13T04:48:33;3.50;;;3.20;;
10977;SDS011;5542;48.272;10.794;2022-10-13T04:51:02;3.67;;;3.38;;
10977;SDS011;5542;48.272;10.794;2022-10-13T04:53:30;3.90;;;3.60;;
10977;SDS011;5542;48.272;10.794;2022-10-13T04:55:59;4.30;;;3.90;;
10977;SDS011;5542;48.272;10.794;2022-10-13T04:58:27;5.70;;;4.78;;
10977;SDS011;5542;48.272;10.794;2022-10-13T05:00:54;5.18;;;4.57;;
10977;SDS011;5542;48.272;10.794;2022-10-13T05:03:21;4.13;;;3.80;;
10977;SDS011;5542;48.272;10.794;2022-10-13T05:05:47;4.90;;;4.50;;
10977;SDS011;5542;48.272;10.794;2022-10-13T05:08:16;5.28;;;4.38;;
10977;SDS011;5542;48.272;10.794;2022-10-13T05:10:51;5.85;;;4.72;;
10977;SDS011;5542;48.272;10.794;2022-10-13T05:13:18;5.40;;;4.30;;
10977;SDS011;5542;48.272;10.794;2022-10-13T05:15:45;4.10;;;3.80;;
10977;SDS011;5542;48.272;10.794;2022-10-13T05:18:12;3.92;;;3.63;;
10977;SDS011;5542;48.272;10.794;2022-10-13T05:20:38;3.70;;;3.40;;
10977;SDS011;5542;48.272;10.794;2022-10-13T05:23:05;3.42;;;3.20;;
10977;SDS011;5542;48.272;10.794;2022-10-13T05:25:34;4.53;;;4.13;;
10977;SDS011;5542;48.272;10.794;2022-10-13T05:28:02;4.90;;;4.50;;
10977;SDS011;5542;48.272;10.794;2022-10-13T05:30:30;4.68;;;4.28;;
10977;SDS011;5542;48.272;10.794;2022-10-13T05:32:56;4.18;;;3.78;;
10977;SDS011;5542;48.272;10.794;2022-10-13T05:35:23;3.95;;;3.65;;
10977;SDS011;5542;48.272;10.794;2022-10-13T05:37:50;4.90;;;4.50;;
10977;SDS011;5542;48.272;10.794;2022-10-13T05:40:16;4.63;;;3.97;;
10977;SDS011;5542;48.272;10.794;2022-10-13T05:42:46;4.57;;;4.18;;
10977;SDS011;5542;48.272;10.794;2022-10-13T05:45:14;4.78;;;4.38;;
10977;SDS011;5542;48.272;10.794;2022-10-13T05:47:42;5.80;;;5.20;;
10977;SDS011;5542;48.272;10.794;2022-10-13T05:50:08;6.28;;;5.68;;
10977;SDS011;5542;48.272;10.794;2022-10-13T05:52:35;5.80;;;5.30;;
10977;SDS011;5542;48.272;10.794;2022-10-13T05:55:03;5.10;;;4.70;;
10977;SDS011;5542;48.272;10.794;2022-10-13T05:57:34;4.70;;;4.30;;
10977;SDS011;5542;48.272;10.794;2022-10-13T06:00:08;5.10;;;4.60;;
10977;SDS011;5542;48.272;10.794;2022-10-13T06:02:37;4.47;;;4.07;;
10977;SDS011;5542;48.272;10.794;2022-10-13T06:05:08;4.95;;;4.55;;
10977;SDS011;5542;48.272;10.794;2022-10-13T06:07:39;6.57;;;5.25;;
10977;SDS011;5542;48.272;10.794;2022-10-13T06:10:07;5.28;;;4.75;;
10977;SDS011;5542;48.272;10.794;2022-10-13T06:12:34;5.50;;;4.95;;
10977;SDS011;5542;48.272;10.794;2022-10-13T06:15:00;5.43;;;4.93;;
10977;SDS011;5542;48.272;10.794;2022-10-13T06:17:28;5.35;;;4.85;;
10977;SDS011;5542;48.272;10.794;2022-10-13T06:19:55;5.43;;;4.93;;
10977;SDS011;5542;48.272;10.794;2022-10-13T06:22:21;5.22;;;4.55;;
10977;SDS011;5542;48.272;10.794;2022-10-13T06:24:48;4.55;;;4.15;;
10977;SDS011;5542;48.272;10.794;2022-10-13T06:27:14;4.50;;;4.05;;
10977;SDS011;5542;48.272;10.794;2022-10-13T06:29:41;4.03;;;3.72;;
10977;SDS011;5542;48.272;10.794;2022-10-13T06:32:07;5.22;;;4.72;;
10977;SDS011;5542;48.272;10.794;2022-10-13T06:34:35;4.47;;;4.07;;
10977;SDS011;5542;48.272;10.794;2022-10-13T06:37:02;4.38;;;3.97;;
10977;SDS011;5542;48.272;10.794;2022-10-13T06:39:28;4.27;;;3.97;;
10977;SDS011;5542;48.272;10.794;2022-10-13T06:41:55;5.40;;;4.90;;
10977;SDS011;5542;48.272;10.794;2022-10-13T06:44:21;4.28;;;3.97;;
10977;SDS011;5542;48.272;10.794;2022-10-13T06:46:48;5.10;;;4.60;;
10977;SDS011;5542;48.272;10.794;2022-10-13T06:49:15;5.40;;;4.90;;
10977;SDS011;5542;48.272;10.794;2022-10-13T06:51:43;4.93;;;4.43;;
10977;SDS011;5542;48.272;10.794;2022-10-13T06:54:09;5.17;;;4.67;;
10977;SDS011;5542;48.272;10.794;2022-10-13T06:56:36;6.38;;;5.70;;
10977;SDS011;5542;48.272;10.794;2022-10-13T06:59:02;5.93;;;5.43;;
10977;SDS011;5542;48.272;10.794;2022-10-13T07:01:29;6.50;;;5.60;;
10977;SDS011;5542;48.272;10.794;2022-10-13T07:03:55;4.70;;;4.30;;
10977;SDS011;5542;48.272;10.794;2022-10-13T07:06:22;5.40;;;4.90;;
10977;SDS011;5542;48.272;10.794;2022-10-13T07:08:50;6.75;;;5.30;;
10977;SDS011;5542;48.272;10.794;2022-10-13T07:11:16;5.50;;;5.00;;
10977;SDS011;5542;48.272;10.794;2022-10-13T07:13:43;4.95;;;4.45;;
10977;SDS011;5542;48.272;10.794;2022-10-13T07:16:10;4.53;;;4.13;;
10977;SDS011;5542;48.272;10.794;2022-10-13T07:18:37;4.85;;;4.40;;
10977;SDS011;5542;48.272;10.794;2022-10-13T07:21:03;7.35;;;6.35;;
10977;SDS011;5542;48.272;10.794;2022-10-13T07:23:30;6.10;;;5.50;;
10977;SDS011;5542;48.272;10.794;2022-10-13T07:25:58;5.97;;;5.38;;
10977;SDS011;5542;48.272;10.794;2022-10-13T07:28:25;5.20;;;4.70;;
10977;SDS011;5542;48.272;10.794;2022-10-13T07:30:52;6.80;;;6.07;;
10977;SDS011;5542;48.272;10.794;2022-10-13T07:33:19;6.43;;;5.25;;
10977;SDS011;5542;48.272;10.794;2022-10-13T07:35:45;6.85;;;5.70;;
10977;SDS011;5542;48.272;10.794;2022-10-13T07:38:12;7.30;;;6.55;;
10977;SDS011;5542;48.272;10.794;2022-10-13T07:40:38;11.05;;;7.72;;
10977;SDS011;5542;48.272;10.794;2022-10-13T07:43:06;8.45;;;7.22;;
10977;SDS011;5542;48.272;10.794;2022-10-13T07:45:33;10.00;;;8.30;;
10977;SDS011;5542;48.272;10.794;2022-10-13T07:48:00;11.27;;;8.65;;
10977;SDS011;5542;48.272;10.794;2022-10-13T07:50:26;10.77;;;8.07;;
10977;SDS011;5542;48.272;10.794;2022-10-13T07:52:53;7.22;;;6.53;;
10977;SDS011;5542;48.272;10.794;2022-10-13T07:55:19;8.07;;;6.93;;
10977;SDS011;5542;48.272;10.794;2022-10-13T07:57:46;7.30;;;6.60;;
10977;SDS011;5542;48.272;10.794;2022-10-13T08:00:14;6.43;;;5.80;;
10977;SDS011;5542;48.272;10.794;2022-10-13T08:02:40;7.72;;;6.93;;
10977;SDS011;5542;48.272;10.794;2022-10-13T08:05:07;6.45;;;5.80;;
10977;SDS011;5542;48.272;10.794;2022-10-13T08:07:34;5.70;;;5.20;;
10977;SDS011;5542;48.272;10.794;2022-10-13T08:10:02;6.80;;;6.20;;
10977;SDS011;5542;48.272;10.794;2022-10-13T08:12:29;5.90;;;5.30;;
10977;SDS011;5542;48.272;10.794;2022-10-13T08:14:56;10.15;;;8.48;;
10977;SDS011;5542;48.272;10.794;2022-10-13T08:17:24;10.35;;;8.55;;
10977;SDS011;5542;48.272;10.794;2022-10-13T08:19:50;7.55;;;6.75;;
10977;SDS011;5542;48.272;10.794;2022-10-13T08:22:17;7.15;;;6.13;;
10977;SDS011;5542;48.272;10.794;2022-10-13T08:24:43;7.05;;;5.55;;
10977;SDS011;5542;48.272;10.794;2022-10-13T08:27:10;8.43;;;6.83;;
10977;SDS011;5542;48.272;10.794;2022-10-13T08:29:41;8.02;;;7.03;;
10977;SDS011;5542;48.272;10.794;2022-10-13T08:32:07;7.90;;;6.93;;
10977;SDS011;5542;48.272;10.794;2022-10-13T08:34:35;8.47;;;7.37;;
10977;SDS011;5542;48.272;10.794;2022-10-13T08:37:02;8.95;;;7.05;;
10977;SDS011;5542;48.272;10.794;2022-10-13T08:39:29;6.78;;;6.00;;
10977;SDS011;5542;48.272;10.794;2022-10-13T08:41:56;10.02;;;7.13;;
10977;SDS011;5542;48.272;10.794;2022-10-13T08:44:24;11.38;;;7.35;;
10977;SDS011;5542;48.272;10.794;2022-10-13T08:47:05;8.50;;;6.65;;
10977;SDS011;5542;48.272;10.794;2022-10-13T08:49:39;8.63;;;6.88;;
10977;SDS011;5542;48.272;10.794;2022-10-13T08:52:10;7.97;;;6.80;;
10977;SDS011;5542;48.272;10.794;2022-10-13T08:54:43;7.72;;;6.22;;
10977;SDS011;5542;48.272;10.794;2022-10-13T08:57:09;9.93;;;7.43;;
10977;SDS011;5542;48.272;10.794;2022-10-13T08:59:36;7.45;;;6.45;;
10977;SDS011;5542;48.272;10.794;2022-10-13T09:02:04;8.10;;;6.82;;
10977;SDS011;5542;48.272;10.794;2022-10-13T09:04:38;9.70;;;6.78;;
10977;SDS011;5542;48.272;10.794;2022-10-13T09:07:10;7.82;;;6.38;;
10977;SDS011;5542;48.272;10.794;2022-10-13T09:09:40;8.52;;;7.40;;
10977;SDS011;5542;48.272;10.794;2022-10-13T09:12:08;9.50;;;7.43;;
10977;SDS011;5542;48.272;10.794;2022-10-13T09:14:36;8.77;;;6.78;;
10977;SDS011;5542;48.272;10.794;2022-10-13T09:17:11;7.93;;;6.57;;
10977;SDS011;5542;48.272;10.794;2022-10-13T09:19:43;6.03;;;5.43;;
10977;SDS011;5542;48.272;10.794;2022-10-13T09:22:22;7.65;;;6.38;;
10977;SDS011;5542;48.272;10.794;2022-10-13T09:25:07;10.77;;;6.63;;
10977;SDS011;5542;48.272;10.794;2022-10-13T09:27:46;7.97;;;6.35;;
10977;SDS011;5542;48.272;10.794;2022-10-13T09:30:31;7.25;;;6.18;;
10977;SDS011;5542;48.272;10.794;2022-10-13T09:33:18;7.43;;;6.73;;
10977;SDS011;5542;48.272;10.794;2022-10-13T09:35:48;6.10;;;5.28;;
10977;SDS011;5542;48.272;10.794;2022-10-13T09:38:31;7.13;;;6.43;;
10977;SDS011;5542;48.272;10.794;2022-10-13T09:40:59;7.47;;;6.40;;
10977;SDS011;5542;48.272;10.794;2022-10-13T09:43:31;9.27;;;6.55;;
10977;SDS011;5542;48.272;10.794;2022-10-13T09:45:58;7.45;;;6.05;;
10977;SDS011;5542;48.272;10.794;2022-10-13T09:48:27;8.77;;;6.13;;
10977;SDS011;5542;48.272;10.794;2022-10-13T09:50:57;7.50;;;6.20;;
10977;SDS011;5542;48.272;10.794;2022-10-13T09:53:25;9.05;;;6.95;;
10977;SDS011;5542;48.272;10.794;2022-10-13T09:56:11;7.30;;;6.15;;
10977;SDS011;5542;48.272;10.794;2022-10-13T09:58:45;6.55;;;5.82;;
10977;SDS011;5542;48.272;10.794;2022-10-13T10:01:17;8.77;;;5.97;;
10977;SDS011;5542;48.272;10.794;2022-10-13T10:03:47;8.23;;;5.00;;
10977;SDS011;5542;48.272;10.794;2022-10-13T10:06:17;7.68;;;6.18;;
10977;SDS011;5542;48.272;10.794;2022-10-13T10:08:44;7.55;;;5.82;;
10977;SDS011;5542;48.272;10.794;2022-10-13T10:11:18;6.28;;;5.32;;
10977;SDS011;5542;48.272;10.794;2022-10-13T10:13:50;7.18;;;5.80;;
10977;SDS011;5542;48.272;10.794;2022-10-13T10:16:18;6.63;;;5.25;;
10977;SDS011;5542;48.272;10.794;2022-10-13T10:18:55;7.32;;;5.60;;
10977;SDS011;5542;48.272;10.794;2022-10-13T10:21:30;6.63;;;5.22;;
10977;SDS011;5542;48.272;10.794;2022-10-13T10:24:03;6.93;;;5.13;;
10977;SDS011;5542;48.272;10.794;2022-10-13T10:26:37;6.50;;;5.80;;
10977;SDS011;5542;48.272;10.794;2022-10-13T10:29:13;6.45;;;5.63;;
10977;SDS011;5542;48.272;10.794;2022-10-13T10:31:48;6.35;;;5.75;;
10977;SDS011;5542;48.272;10.794;2022-10-13T10:34:33;6.68;;;5.28;;
10977;SDS011;5542;48.272;10.794;2022-10-13T10:37:10;8.85;;;6.13;;
10977;SDS011;5542;48.272;10.794;2022-10-13T10:39:44;7.38;;;5.88;;
10977;SDS011;5542;48.272;10.794;2022-10-13T10:42:19;5.82;;;5.20;;
10977;SDS011;5542;48.272;10.794;2022-10-13T10:45:03;4.75;;;4.32;;
10977;SDS011;5542;48.272;10.794;2022-10-13T10:47:40;7.68;;;5.35;;
10977;SDS011;5542;48.272;10.794;2022-10-13T10:50:11;6.00;;;5.10;;
10977;SDS011;5542;48.272;10.794;2022-10-13T10:52:41;6.28;;;4.90;;
10977;SDS011;5542;48.272;10.794;2022-10-13T10:55:16;5.55;;;5.05;;
10977;SDS011;5542;48.272;10.794;2022-10-13T10:57:50;7.05;;;5.13;;
10977;SDS011;5542;48.272;10.794;2022-10-13T11:00:24;6.63;;;5.60;;
10977;SDS011;5542;48.272;10.794;2022-10-13T11:02:53;6.43;;;4.90;;
10977;SDS011;5542;48.272;10.794;2022-10-13T11:05:30;6.32;;;5.55;;
10977;SDS011;5542;48.272;10.794;2022-10-13T11:08:29;6.80;;;4.78;;
10977;SDS011;5542;48.272;10.794;2022-10-13T11:11:27;5.05;;;4.57;;
10977;SDS011;5542;48.272;10.794;2022-10-13T11:13:59;7.90;;;5.57;;
10977;SDS011;5542;48.272;10.794;2022-10-13T11:16:29;7.15;;;4.88;;
10977;SDS011;5542;48.272;10.794;2022-10-13T11:19:02;5.50;;;4.63;;
10977;SDS011;5542;48.272;10.794;2022-10-13T11:24:45;4.72;;;4.18;;
10977;SDS011;5542;48.272;10.794;2022-10-13T11:27:18;7.97;;;4.78;;
10977;SDS011;5542;48.272;10.794;2022-10-13T11:29:50;6.28;;;5.45;;
10977;SDS011;5542;48.272;10.794;2022-10-13T11:35:21;8.13;;;5.90;;
10977;SDS011;5542;48.272;10.794;2022-10-13T11:41:02;6.15;;;5.32;;
10977;SDS011;5542;48.272;10.794;2022-10-13T11:43:41;7.63;;;5.60;;
10977;SDS011;5542;48.272;10.794;2022-10-13T11:46:25;5.80;;;4.93;;
10977;SDS011;5542;48.272;10.794;2022-10-13T11:52:03;7.00;;;5.10;;
10977;SDS011;5542;48.272;10.794;2022-10-13T11:54:44;5.45;;;4.30;;
10977;SDS011;5542;48.272;10.794;2022-10-13T11:57:20;6.68;;;4.53;;
10977;SDS011;5542;48.272;10.794;2022-10-13T11:59:48;8.43;;;5.38;;
10977;SDS011;5542;48.272;10.794;2022-10-13T12:02:19;6.97;;;5.35;;
10977;SDS011;5542;48.272;10.794;2022-10-13T12:04:58;8.02;;;5.53;;
10977;SDS011;5542;48.272;10.794;2022-10-13T12:07:27;5.68;;;4.93;;
10977;SDS011;5542;48.272;10.794;2022-10-13T12:09:58;7.22;;;5.35;;
10977;SDS011;5542;48.272;10.794;2022-10-13T12:12:27;4.97;;;4.47;;
10977;SDS011;5542;48.272;10.794;2022-10-13T12:14:54;7.95;;;6.00;;
10977;SDS011;5542;48.272;10.794;2022-10-13T12:17:26;5.50;;;4.90;;
10977;SDS011;5542;48.272;10.794;2022-10-13T12:19:54;7.28;;;5.07;;
10977;SDS011;5542;48.272;10.794;2022-10-13T12:22:22;4.20;;;3.55;;
10977;SDS011;5542;48.272;10.794;2022-10-13T12:24:57;6.07;;;5.00;;
10977;SDS011;5542;48.272;10.794;2022-10-13T12:27:26;6.57;;;5.47;;
10977;SDS011;5542;48.272;10.794;2022-10-13T12:29:56;9.13;;;5.50;;
10977;SDS011;5542;48.272;10.794;2022-10-13T12:32:26;5.18;;;4.68;;
10977;SDS011;5542;48.272;10.794;2022-10-13T12:34:53;7.03;;;5.10;;
10977;SDS011;5542;48.272;10.794;2022-10-13T12:37:24;6.07;;;4.93;;
10977;SDS011;5542;48.272;10.794;2022-10-13T12:39:54;6.25;;;5.03;;
10977;SDS011;5542;48.272;10.794;2022-10-13T12:42:22;5.50;;;4.47;;
10977;SDS011;5542;48.272;10.794;2022-10-13T12:44:53;7.70;;;5.30;;
10977;SDS011;5542;48.272;10.794;2022-10-13T12:47:36;4.97;;;4.47;;
10977;SDS011;5542;48.272;10.794;2022-10-13T12:55:53;8.30;;;5.22;;
10977;SDS011;5542;48.272;10.794;2022-10-13T12:58:24;6.00;;;5.17;;
10977;SDS011;5542;48.272;10.794;2022-10-13T13:00:59;6.90;;;5.03;;
10977;SDS011;5542;48.272;10.794;2022-10-13T13:03:35;7.57;;;5.50;;
10977;SDS011;5542;48.272;10.794;2022-10-13T13:06:06;4.57;;;4.15;;
10977;SDS011;5542;48.272;10.794;2022-10-13T13:08:35;6.07;;;5.47;;
10977;SDS011;5542;48.272;10.794;2022-10-13T13:11:02;6.25;;;5.38;;
10977;SDS011;5542;48.272;10.794;2022-10-13T13:13:31;7.10;;;6.40;;
10977;SDS011;5542;48.272;10.794;2022-10-13T13:16:12;15.52;;;12.77;;
10977;SDS011;5542;48.272;10.794;2022-10-13T13:18:41;7.13;;;6.30;;
10977;SDS011;5542;48.272;10.794;2022-10-13T13:21:10;7.35;;;6.15;;
10977;SDS011;5542;48.272;10.794;2022-10-13T13:23:38;5.90;;;5.30;;
10977;SDS011;5542;48.272;10.794;2022-10-13T13:26:11;7.40;;;5.77;;
10977;SDS011;5542;48.272;10.794;2022-10-13T13:28:41;5.78;;;4.88;;
10977;SDS011;5542;48.272;10.794;2022-10-13T13:31:13;5.68;;;4.95;;
10977;SDS011;5542;48.272;10.794;2022-10-13T13:33:40;7.63;;;6.82;;
10977;SDS011;5542;48.272;10.794;2022-10-13T13:36:10;8.93;;;6.50;;
10977;SDS011;5542;48.272;10.794;2022-10-13T13:38:40;8.57;;;5.70;;
10977;SDS011;5542;48.272;10.794;2022-10-13T13:41:07;6.32;;;4.78;;
10977;SDS011;5542;48.272;10.794;2022-10-13T13:43:34;6.97;;;5.40;;
10977;SDS011;5542;48.272;10.794;2022-10-13T13:46:01;5.53;;;4.47;;
10977;SDS011;5542;48.272;10.794;2022-10-13T13:48:30;5.78;;;4.65;;
10977;SDS011;5542;48.272;10.794;2022-10-13T13:50:56;6.60;;;5.10;;
10977;SDS011;5542;48.272;10.794;2022-10-13T13:53:23;5.35;;;4.45;;
10977;SDS011;5542;48.272;10.794;2022-10-13T13:55:50;6.47;;;5.03;;
10977;SDS011;5542;48.272;10.794;2022-10-13T13:58:16;6.78;;;4.43;;
10977;SDS011;5542;48.272;10.794;2022-10-13T14:00:43;7.25;;;5.70;;
10977;SDS011;5542;48.272;10.794;2022-10-13T14:03:09;6.10;;;5.18;;
10977;SDS011;5542;48.272;10.794;2022-10-13T14:05:38;5.23;;;4.70;;
10977;SDS011;5542;48.272;10.794;2022-10-13T14:08:06;6.35;;;4.70;;
10977;SDS011;5542;48.272;10.794;2022-10-13T14:10:33;6.15;;;4.82;;
10977;SDS011;5542;48.272;10.794;2022-10-13T14:13:00;6.00;;;5.20;;
10977;SDS011;5542;48.272;10.794;2022-10-13T14:15:27;5.60;;;5.07;;
10977;SDS011;5542;48.272;10.794;2022-10-13T14:17:53;7.30;;;5.13;;
10977;SDS011;5542;48.272;10.794;2022-10-13T14:20:20;11.50;;;7.35;;
10977;SDS011;5542;48.272;10.794;2022-10-13T14:22:48;7.80;;;6.07;;
10977;SDS011;5542;48.272;10.794;2022-10-13T14:25:15;4.78;;;4.28;;
10977;SDS011;5542;48.272;10.794;2022-10-13T14:27:42;6.13;;;4.95;;
10977;SDS011;5542;48.272;10.794;2022-10-13T14:30:10;4.47;;;4.07;;
10977;SDS011;5542;48.272;10.794;2022-10-13T14:32:37;6.50;;;5.10;;
10977;SDS011;5542;48.272;10.794;2022-10-13T14:35:04;5.78;;;5.03;;
10977;SDS011;5542;48.272;10.794;2022-10-13T14:37:31;4.57;;;4.18;;
10977;SDS011;5542;48.272;10.794;2022-10-13T14:39:59;4.93;;;4.40;;
10977;SDS011;5542;48.272;10.794;2022-10-13T14:42:26;4.03;;;3.72;;
10977;SDS011;5542;48.272;10.794;2022-10-13T14:44:52;6.60;;;5.40;;
10977;SDS011;5542;48.272;10.794;2022-10-13T14:47:19;5.15;;;4.65;;
10977;SDS011;5542;48.272;10.794;2022-10-13T14:49:45;6.32;;;4.82;;
10977;SDS011;5542;48.272;10.794;2022-10-13T14:52:12;4.80;;;4.40;;
10977;SDS011;5542;48.272;10.794;2022-10-13T14:54:38;6.07;;;4.97;;
10977;SDS011;5542;48.272;10.794;2022-10-13T14:57:06;4.80;;;4.15;;
10977;SDS011;5542;48.272;10.794;2022-10-13T14:59:33;6.28;;;4.75;;
10977;SDS011;5542;48.272;10.794;2022-10-13T15:01:59;5.82;;;5.18;;
10977;SDS011;5542;48.272;10.794;2022-10-13T15:04:26;7.30;;;4.70;;
10977;SDS011;5542;48.272;10.794;2022-10-13T15:06:52;4.93;;;4.25;;
10977;SDS011;5542;48.272;10.794;2022-10-13T15:09:19;4.70;;;4.30;;
10977;SDS011;5542;48.272;10.794;2022-10-13T15:11:45;5.30;;;4.80;;
10977;SDS011;5542;48.272;10.794;2022-10-13T15:14:13;5.13;;;4.63;;
10977;SDS011;5542;48.272;10.794;2022-10-13T15:16:40;5.63;;;3.60;;
10977;SDS011;5542;48.272;10.794;2022-10-13T15:19:07;5.27;;;4.47;;
10977;SDS011;5542;48.272;10.794;2022-10-13T15:21:33;8.60;;;5.55;;
10977;SDS011;5542;48.272;10.794;2022-10-13T15:24:00;5.75;;;5.03;;
10977;SDS011;5542;48.272;10.794;2022-10-13T15:26:26;4.68;;;4.28;;
10977;SDS011;5542;48.272;10.794;2022-10-13T15:28:53;4.00;;;3.60;;